sensor_id;sensor_type;location;lat;lon;timestamp;temperature;humidity
46562;DHT22;32289;42.688;23.330;2023-08-06T00:02:27;18.90;99.90
46562;DHT22;32289;42.688;23.330;2023-08-06T00:06:08;18.70;99.90
46562;DHT22;32289;42.688;23.330;2023-08-06T00:09:49;18.40;99.90
46562;DHT22;32289;42.688;23.330;2023-08-06T00:13:29;18.90;99.90
46562;DHT22;32289;42.688;23.330;2023-08-06T00:17:10;18.70;99.90
46562;DHT22;32289;42.688;23.330;2023-08-06T00:20:52;18.30;99.90
46562;DHT22;32289;42.688;23.330;2023-08-06T00:24:35;18.10;99.90
46562;DHT22;32289;42.688;23.330;2023-08-06T00:28:16;18.70;99.90
46562;DHT22;32289;42.688;23.330;2023-08-06T00:31:57;18.50;99.90
46562;DHT22;32289;42.688;23.330;2023-08-06T00:35:38;18.40;99.90
46562;DHT22;32289;42.688;23.330;2023-08-06T00:39:18;18.30;99.90
46562;DHT22;32289;42.688;23.330;2023-08-06T00:42:59;18.10;99.90
46562;DHT22;32289;42.688;23.330;2023-08-06T00:46:40;18.10;99.90
46562;DHT22;32289;42.688;23.330;2023-08-06T00:50:20;18.40;99.90
46562;DHT22;32289;42.688;23.330;2023-08-06T00:54:03;18.30;99.90
46562;DHT22;32289;42.688;23.330;2023-08-06T00:57:44;18.40;99.90
46562;DHT22;32289;42.688;23.330;2023-08-06T01:01:24;18.70;99.90
46562;DHT22;32289;42.688;23.330;2023-08-06T01:05:08;18.80;99.90
46562;DHT22;32289;42.688;23.330;2023-08-06T01:08:56;19.00;99.90
46562;DHT22;32289;42.688;23.330;2023-08-06T01:16:25;18.90;99.90
46562;DHT22;32289;42.688;23.330;2023-08-06T01:20:06;18.90;99.90
46562;DHT22;32289;42.688;23.330;2023-08-06T01:23:47;18.90;99.90
46562;DHT22;32289;42.688;23.330;2023-08-06T01:27:30;19.10;99.90
46562;DHT22;32289;42.688;23.330;2023-08-06T01:31:18;19.10;99.90
46562;DHT22;32289;42.688;23.330;2023-08-06T01:35:00;19.10;99.90
46562;DHT22;32289;42.688;23.330;2023-08-06T01:38:41;19.10;99.90
46562;DHT22;32289;42.688;23.330;2023-08-06T01:42:22;18.90;99.90
46562;DHT22;32289;42.688;23.330;2023-08-06T01:46:03;18.80;99.90
46562;DHT22;32289;42.688;23.330;2023-08-06T01:49:43;18.90;99.90
46562;DHT22;32289;42.688;23.330;2023-08-06T01:53:26;18.80;99.90
46562;DHT22;32289;42.688;23.330;2023-08-06T01:57:07;19.10;99.90
46562;DHT22;32289;42.688;23.330;2023-08-06T02:00:47;19.00;99.90
46562;DHT22;32289;42.688;23.330;2023-08-06T02:04:28;18.90;99.90
46562;DHT22;32289;42.688;23.330;2023-08-06T02:08:09;18.90;99.90
46562;DHT22;32289;42.688;23.330;2023-08-06T02:11:49;18.90;99.90
46562;DHT22;32289;42.688;23.330;2023-08-06T02:15:30;18.90;99.90
46562;DHT22;32289;42.688;23.330;2023-08-06T02:19:11;18.90;99.90
46562;DHT22;32289;42.688;23.330;2023-08-06T02:22:51;19.20;99.90
46562;DHT22;32289;42.688;23.330;2023-08-06T02:26:32;19.20;99.90
46562;DHT22;32289;42.688;23.330;2023-08-06T02:30:13;19.20;99.90
46562;DHT22;32289;42.688;23.330;2023-08-06T02:33:53;19.10;99.90
46562;DHT22;32289;42.688;23.330;2023-08-06T02:37:34;18.50;99.90
46562;DHT22;32289;42.688;23.330;2023-08-06T02:41:15;18.40;99.90
46562;DHT22;32289;42.688;23.330;2023-08-06T02:44:56;18.30;99.90
46562;DHT22;32289;42.688;23.330;2023-08-06T02:48:36;18.40;99.90
46562;DHT22;32289;42.688;23.330;2023-08-06T02:52:17;18.60;99.90
46562;DHT22;32289;42.688;23.330;2023-08-06T02:55:58;18.60;99.90
46562;DHT22;32289;42.688;23.330;2023-08-06T02:59:39;18.40;99.90
46562;DHT22;32289;42.688;23.330;2023-08-06T03:03:20;18.40;99.90
46562;DHT22;32289;42.688;23.330;2023-08-06T03:07:00;18.30;99.90
46562;DHT22;32289;42.688;23.330;2023-08-06T03:10:41;18.40;99.90
46562;DHT22;32289;42.688;23.330;2023-08-06T03:14:21;18.40;99.90
46562;DHT22;32289;42.688;23.330;2023-08-06T03:18:02;18.30;99.90
46562;DHT22;32289;42.688;23.330;2023-08-06T03:21:43;18.50;99.90
46562;DHT22;32289;42.688;23.330;2023-08-06T03:25:24;18.70;99.90
46562;DHT22;32289;42.688;23.330;2023-08-06T03:29:04;18.50;99.90
46562;DHT22;32289;42.688;23.330;2023-08-06T03:32:45;18.60;99.90
46562;DHT22;32289;42.688;23.330;2023-08-06T03:36:27;18.80;99.90
46562;DHT22;32289;42.688;23.330;2023-08-06T03:40:08;18.40;99.90
46562;DHT22;32289;42.688;23.330;2023-08-06T03:43:49;17.90;99.90
46562;DHT22;32289;42.688;23.330;2023-08-06T03:47:30;17.90;99.90
46562;DHT22;32289;42.688;23.330;2023-08-06T03:51:13;18.20;99.90
46562;DHT22;32289;42.688;23.330;2023-08-06T03:54:54;18.20;99.90
46562;DHT22;32289;42.688;23.330;2023-08-06T03:58:35;18.20;99.90
46562;DHT22;32289;42.688;23.330;2023-08-06T04:02:15;18.30;99.90
46562;DHT22;32289;42.688;23.330;2023-08-06T04:05:56;18.50;99.90
46562;DHT22;32289;42.688;23.330;2023-08-06T04:09:59;18.70;99.90
46562;DHT22;32289;42.688;23.330;2023-08-06T04:13:43;18.70;99.90
46562;DHT22;32289;42.688;23.330;2023-08-06T04:17:24;18.60;99.90
46562;DHT22;32289;42.688;23.330;2023-08-06T04:21:05;18.80;99.90
46562;DHT22;32289;42.688;23.330;2023-08-06T04:24:45;19.00;99.90
46562;DHT22;32289;42.688;23.330;2023-08-06T04:28:28;19.10;99.90
46562;DHT22;32289;42.688;23.330;2023-08-06T04:32:10;19.40;99.90
46562;DHT22;32289;42.688;23.330;2023-08-06T04:35:54;19.30;99.90
46562;DHT22;32289;42.688;23.330;2023-08-06T04:39:36;19.00;99.90
46562;DHT22;32289;42.688;23.330;2023-08-06T04:43:17;19.20;99.90
46562;DHT22;32289;42.688;23.330;2023-08-06T04:46:57;19.40;99.90
46562;DHT22;32289;42.688;23.330;2023-08-06T04:50:38;19.20;99.90
46562;DHT22;32289;42.688;23.330;2023-08-06T04:54:19;19.20;99.90
46562;DHT22;32289;42.688;23.330;2023-08-06T04:57:59;19.20;99.90
46562;DHT22;32289;42.688;23.330;2023-08-06T05:01:40;19.20;99.90
46562;DHT22;32289;42.688;23.330;2023-08-06T05:05:21;19.30;99.90
46562;DHT22;32289;42.688;23.330;2023-08-06T05:09:02;19.60;99.90
46562;DHT22;32289;42.688;23.330;2023-08-06T05:12:42;19.90;99.90
46562;DHT22;32289;42.688;23.330;2023-08-06T05:16:23;21.00;99.90
46562;DHT22;32289;42.688;23.330;2023-08-06T05:20:04;21.00;99.90
46562;DHT22;32289;42.688;23.330;2023-08-06T05:23:45;21.30;99.90
46562;DHT22;32289;42.688;23.330;2023-08-06T05:27:26;21.20;99.90
46562;DHT22;32289;42.688;23.330;2023-08-06T05:31:07;21.00;99.90
46562;DHT22;32289;42.688;23.330;2023-08-06T05:34:47;20.60;99.90
46562;DHT22;32289;42.688;23.330;2023-08-06T05:38:30;21.40;99.90
46562;DHT22;32289;42.688;23.330;2023-08-06T05:42:10;21.50;99.90
46562;DHT22;32289;42.688;23.330;2023-08-06T05:45:51;21.90;99.90
46562;DHT22;32289;42.688;23.330;2023-08-06T05:49:32;21.50;99.90
46562;DHT22;32289;42.688;23.330;2023-08-06T05:53:12;21.70;99.90
46562;DHT22;32289;42.688;23.330;2023-08-06T05:56:53;21.80;99.90
46562;DHT22;32289;42.688;23.330;2023-08-06T06:00:34;22.10;99.90
46562;DHT22;32289;42.688;23.330;2023-08-06T06:04:15;22.70;99.90
46562;DHT22;32289;42.688;23.330;2023-08-06T06:07:56;22.40;99.90
46562;DHT22;32289;42.688;23.330;2023-08-06T06:11:36;22.60;99.90
46562;DHT22;32289;42.688;23.330;2023-08-06T06:15:17;23.00;99.90
46562;DHT22;32289;42.688;23.330;2023-08-06T06:18:58;23.10;99.90
46562;DHT22;32289;42.688;23.330;2023-08-06T06:22:39;23.00;99.90
46562;DHT22;32289;42.688;23.330;2023-08-06T06:26:19;22.90;99.90
46562;DHT22;32289;42.688;23.330;2023-08-06T06:30:00;22.90;99.90
46562;DHT22;32289;42.688;23.330;2023-08-06T06:33:41;23.30;99.90
46562;DHT22;32289;42.688;23.330;2023-08-06T06:37:22;23.70;99.90
46562;DHT22;32289;42.688;23.330;2023-08-06T06:41:02;23.90;99.90
46562;DHT22;32289;42.688;23.330;2023-08-06T06:44:43;24.60;99.90
46562;DHT22;32289;42.688;23.330;2023-08-06T06:48:29;24.60;98.90
46562;DHT22;32289;42.688;23.330;2023-08-06T06:52:10;23.90;98.80
46562;DHT22;32289;42.688;23.330;2023-08-06T06:55:51;23.00;99.90
46562;DHT22;32289;42.688;23.330;2023-08-06T06:59:32;22.90;99.90
46562;DHT22;32289;42.688;23.330;2023-08-06T07:03:13;22.20;99.90
46562;DHT22;32289;42.688;23.330;2023-08-06T07:06:54;22.20;99.90
46562;DHT22;32289;42.688;23.330;2023-08-06T07:10:34;23.40;99.90
46562;DHT22;32289;42.688;23.330;2023-08-06T07:14:17;24.20;99.10
46562;DHT22;32289;42.688;23.330;2023-08-06T07:17:57;24.90;96.10
46562;DHT22;32289;42.688;23.330;2023-08-06T07:21:38;24.50;95.20
46562;DHT22;32289;42.688;23.330;2023-08-06T07:25:18;25.20;95.30
46562;DHT22;32289;42.688;23.330;2023-08-06T07:28:59;24.50;91.50
46562;DHT22;32289;42.688;23.330;2023-08-06T07:32:40;24.10;93.00
46562;DHT22;32289;42.688;23.330;2023-08-06T07:36:21;23.80;92.00
46562;DHT22;32289;42.688;23.330;2023-08-06T07:40:02;23.90;92.50
46562;DHT22;32289;42.688;23.330;2023-08-06T07:43:43;25.50;88.60
46562;DHT22;32289;42.688;23.330;2023-08-06T07:47:23;26.10;80.90
46562;DHT22;32289;42.688;23.330;2023-08-06T07:51:04;25.80;78.20
46562;DHT22;32289;42.688;23.330;2023-08-06T07:54:45;26.70;78.30
46562;DHT22;32289;42.688;23.330;2023-08-06T07:58:26;26.40;77.50
46562;DHT22;32289;42.688;23.330;2023-08-06T08:02:07;26.80;73.10
46562;DHT22;32289;42.688;23.330;2023-08-06T08:05:47;27.00;75.70
46562;DHT22;32289;42.688;23.330;2023-08-06T08:09:28;26.10;78.60
46562;DHT22;32289;42.688;23.330;2023-08-06T08:13:09;25.10;83.50
46562;DHT22;32289;42.688;23.330;2023-08-06T08:16:50;25.00;80.60
46562;DHT22;32289;42.688;23.330;2023-08-06T08:20:31;26.50;74.90
46562;DHT22;32289;42.688;23.330;2023-08-06T08:24:13;25.40;78.50
46562;DHT22;32289;42.688;23.330;2023-08-06T08:27:54;25.50;78.40
46562;DHT22;32289;42.688;23.330;2023-08-06T08:31:35;25.30;82.40
46562;DHT22;32289;42.688;23.330;2023-08-06T08:35:19;26.90;75.00
46562;DHT22;32289;42.688;23.330;2023-08-06T08:39:00;27.90;70.80
46562;DHT22;32289;42.688;23.330;2023-08-06T08:42:41;28.50;65.40
46562;DHT22;32289;42.688;23.330;2023-08-06T08:46:23;28.10;66.80
46562;DHT22;32289;42.688;23.330;2023-08-06T08:50:05;29.20;64.20
46562;DHT22;32289;42.688;23.330;2023-08-06T08:53:49;29.30;61.70
46562;DHT22;32289;42.688;23.330;2023-08-06T08:57:32;30.10;61.60
46562;DHT22;32289;42.688;23.330;2023-08-06T09:01:13;30.20;59.50
46562;DHT22;32289;42.688;23.330;2023-08-06T09:04:55;30.80;58.90
46562;DHT22;32289;42.688;23.330;2023-08-06T09:08:52;30.10;60.40
46562;DHT22;32289;42.688;23.330;2023-08-06T09:12:35;28.80;64.00
46562;DHT22;32289;42.688;23.330;2023-08-06T09:16:16;29.30;62.90
46562;DHT22;32289;42.688;23.330;2023-08-06T09:19:56;29.40;62.40
46562;DHT22;32289;42.688;23.330;2023-08-06T09:23:37;30.50;58.90
46562;DHT22;32289;42.688;23.330;2023-08-06T09:27:18;30.80;57.50
46562;DHT22;32289;42.688;23.330;2023-08-06T09:30:59;28.90;59.80
46562;DHT22;32289;42.688;23.330;2023-08-06T09:34:42;27.80;63.00
46562;DHT22;32289;42.688;23.330;2023-08-06T09:38:24;29.90;57.90
46562;DHT22;32289;42.688;23.330;2023-08-06T09:42:05;29.50;59.60
46562;DHT22;32289;42.688;23.330;2023-08-06T09:45:46;28.70;59.30
46562;DHT22;32289;42.688;23.330;2023-08-06T09:49:28;28.20;60.80
46562;DHT22;32289;42.688;23.330;2023-08-06T09:53:09;28.50;61.70
46562;DHT22;32289;42.688;23.330;2023-08-06T09:56:54;27.60;62.50
46562;DHT22;32289;42.688;23.330;2023-08-06T10:00:35;28.50;56.80
46562;DHT22;32289;42.688;23.330;2023-08-06T10:04:19;28.50;58.00
46562;DHT22;32289;42.688;23.330;2023-08-06T10:08:02;27.80;58.90
46562;DHT22;32289;42.688;23.330;2023-08-06T10:11:43;26.80;62.90
46562;DHT22;32289;42.688;23.330;2023-08-06T10:15:31;26.30;61.80
46562;DHT22;32289;42.688;23.330;2023-08-06T10:19:12;26.60;63.20
46562;DHT22;32289;42.688;23.330;2023-08-06T10:23:04;26.30;63.30
46562;DHT22;32289;42.688;23.330;2023-08-06T10:26:46;26.50;62.40
46562;DHT22;32289;42.688;23.330;2023-08-06T10:30:31;27.10;62.10
46562;DHT22;32289;42.688;23.330;2023-08-06T10:34:16;26.40;63.80
46562;DHT22;32289;42.688;23.330;2023-08-06T10:38:12;26.10;66.50
46562;DHT22;32289;42.688;23.330;2023-08-06T10:41:53;26.60;65.70
46562;DHT22;32289;42.688;23.330;2023-08-06T10:45:35;26.60;64.30
46562;DHT22;32289;42.688;23.330;2023-08-06T10:49:17;26.40;64.20
46562;DHT22;32289;42.688;23.330;2023-08-06T10:53:04;26.00;66.90
46562;DHT22;32289;42.688;23.330;2023-08-06T10:56:45;25.70;66.30
46562;DHT22;32289;42.688;23.330;2023-08-06T11:00:28;25.50;66.40
46562;DHT22;32289;42.688;23.330;2023-08-06T11:04:09;25.70;66.80
46562;DHT22;32289;42.688;23.330;2023-08-06T11:07:56;25.90;66.30
46562;DHT22;32289;42.688;23.330;2023-08-06T11:11:37;26.00;68.30
46562;DHT22;32289;42.688;23.330;2023-08-06T11:15:21;26.10;67.60
46562;DHT22;32289;42.688;23.330;2023-08-06T11:19:02;25.90;67.00
46562;DHT22;32289;42.688;23.330;2023-08-06T11:22:42;25.80;67.50
46562;DHT22;32289;42.688;23.330;2023-08-06T11:26:23;25.50;68.90
46562;DHT22;32289;42.688;23.330;2023-08-06T11:30:05;25.00;77.20
46562;DHT22;32289;42.688;23.330;2023-08-06T11:33:45;24.90;84.30
46562;DHT22;32289;42.688;23.330;2023-08-06T11:37:26;24.40;83.60
46562;DHT22;32289;42.688;23.330;2023-08-06T11:41:07;25.10;74.80
46562;DHT22;32289;42.688;23.330;2023-08-06T11:44:48;25.40;79.30
46562;DHT22;32289;42.688;23.330;2023-08-06T11:48:28;25.90;74.70
46562;DHT22;32289;42.688;23.330;2023-08-06T11:55:51;25.80;68.20
46562;DHT22;32289;42.688;23.330;2023-08-06T11:59:32;27.10;65.30
46562;DHT22;32289;42.688;23.330;2023-08-06T12:03:13;27.30;64.60
46562;DHT22;32289;42.688;23.330;2023-08-06T12:06:54;27.40;64.10
46562;DHT22;32289;42.688;23.330;2023-08-06T12:10:35;27.50;62.80
46562;DHT22;32289;42.688;23.330;2023-08-06T12:14:16;27.60;63.20
46562;DHT22;32289;42.688;23.330;2023-08-06T12:17:57;28.30;63.10
46562;DHT22;32289;42.688;23.330;2023-08-06T12:21:41;28.00;61.00
46562;DHT22;32289;42.688;23.330;2023-08-06T12:25:24;27.40;59.50
46562;DHT22;32289;42.688;23.330;2023-08-06T12:29:04;27.70;58.00
46562;DHT22;32289;42.688;23.330;2023-08-06T12:32:45;26.60;63.30
46562;DHT22;32289;42.688;23.330;2023-08-06T12:36:26;26.70;62.40
46562;DHT22;32289;42.688;23.330;2023-08-06T12:40:07;26.40;64.20
46562;DHT22;32289;42.688;23.330;2023-08-06T12:43:47;26.00;64.30
46562;DHT22;32289;42.688;23.330;2023-08-06T12:47:28;26.30;62.20
46562;DHT22;32289;42.688;23.330;2023-08-06T12:51:09;26.80;62.60
46562;DHT22;32289;42.688;23.330;2023-08-06T12:54:50;26.80;61.50
46562;DHT22;32289;42.688;23.330;2023-08-06T12:58:32;26.40;64.00
46562;DHT22;32289;42.688;23.330;2023-08-06T13:02:13;26.20;64.80
46562;DHT22;32289;42.688;23.330;2023-08-06T13:06:00;26.10;65.00
46562;DHT22;32289;42.688;23.330;2023-08-06T13:09:41;26.10;63.90
46562;DHT22;32289;42.688;23.330;2023-08-06T13:13:24;25.90;64.10
46562;DHT22;32289;42.688;23.330;2023-08-06T13:17:07;26.60;64.50
46562;DHT22;32289;42.688;23.330;2023-08-06T13:20:53;26.70;62.60
46562;DHT22;32289;42.688;23.330;2023-08-06T13:24:34;26.40;61.50
46562;DHT22;32289;42.688;23.330;2023-08-06T13:28:15;26.30;62.60
46562;DHT22;32289;42.688;23.330;2023-08-06T13:31:56;26.00;63.40
46562;DHT22;32289;42.688;23.330;2023-08-06T13:35:37;26.00;63.90
46562;DHT22;32289;42.688;23.330;2023-08-06T13:39:18;26.20;64.20
46562;DHT22;32289;42.688;23.330;2023-08-06T13:43:00;26.20;63.60
46562;DHT22;32289;42.688;23.330;2023-08-06T13:46:41;26.00;64.40
46562;DHT22;32289;42.688;23.330;2023-08-06T13:50:22;26.40;64.20
46562;DHT22;32289;42.688;23.330;2023-08-06T13:54:06;26.60;63.10
46562;DHT22;32289;42.688;23.330;2023-08-06T13:57:47;26.90;62.00
46562;DHT22;32289;42.688;23.330;2023-08-06T14:01:28;26.70;62.70
46562;DHT22;32289;42.688;23.330;2023-08-06T14:05:09;26.40;62.10
46562;DHT22;32289;42.688;23.330;2023-08-06T14:08:50;26.10;62.90
46562;DHT22;32289;42.688;23.330;2023-08-06T14:12:31;26.50;60.40
46562;DHT22;32289;42.688;23.330;2023-08-06T14:16:12;26.40;63.30
46562;DHT22;32289;42.688;23.330;2023-08-06T14:19:52;26.00;64.20
46562;DHT22;32289;42.688;23.330;2023-08-06T14:23:33;26.10;63.30
46562;DHT22;32289;42.688;23.330;2023-08-06T14:27:14;26.10;63.70
46562;DHT22;32289;42.688;23.330;2023-08-06T14:30:54;26.40;62.90
46562;DHT22;32289;42.688;23.330;2023-08-06T14:34:36;26.20;62.60
46562;DHT22;32289;42.688;23.330;2023-08-06T14:38:19;26.10;65.10
46562;DHT22;32289;42.688;23.330;2023-08-06T14:41:59;26.20;62.80
46562;DHT22;32289;42.688;23.330;2023-08-06T14:45:40;26.10;62.70
46562;DHT22;32289;42.688;23.330;2023-08-06T14:49:21;26.10;62.30
46562;DHT22;32289;42.688;23.330;2023-08-06T14:53:04;26.10;62.30
46562;DHT22;32289;42.688;23.330;2023-08-06T14:56:47;26.00;63.00
46562;DHT22;32289;42.688;23.330;2023-08-06T15:00:28;26.30;62.70
46562;DHT22;32289;42.688;23.330;2023-08-06T15:04:11;26.40;61.80
46562;DHT22;32289;42.688;23.330;2023-08-06T15:07:52;26.50;62.10
46562;DHT22;32289;42.688;23.330;2023-08-06T15:11:33;26.10;62.90
46562;DHT22;32289;42.688;23.330;2023-08-06T15:15:14;26.20;63.10
46562;DHT22;32289;42.688;23.330;2023-08-06T15:18:55;26.30;62.90
46562;DHT22;32289;42.688;23.330;2023-08-06T15:22:35;26.10;64.70
46562;DHT22;32289;42.688;23.330;2023-08-06T15:26:16;26.30;63.40
46562;DHT22;32289;42.688;23.330;2023-08-06T15:29:57;26.40;63.20
46562;DHT22;32289;42.688;23.330;2023-08-06T15:33:38;26.40;63.10
46562;DHT22;32289;42.688;23.330;2023-08-06T15:37:18;26.20;63.00
46562;DHT22;32289;42.688;23.330;2023-08-06T15:40:59;26.20;63.30
46562;DHT22;32289;42.688;23.330;2023-08-06T15:44:40;26.30;63.50
46562;DHT22;32289;42.688;23.330;2023-08-06T15:48:21;26.30;62.30
46562;DHT22;32289;42.688;23.330;2023-08-06T15:52:01;26.40;62.20
46562;DHT22;32289;42.688;23.330;2023-08-06T15:55:42;26.40;62.20
46562;DHT22;32289;42.688;23.330;2023-08-06T16:03:05;26.20;61.70
46562;DHT22;32289;42.688;23.330;2023-08-06T16:06:45;25.90;63.00
46562;DHT22;32289;42.688;23.330;2023-08-06T16:10:26;25.60;63.70
46562;DHT22;32289;42.688;23.330;2023-08-06T16:14:07;25.40;65.10
46562;DHT22;32289;42.688;23.330;2023-08-06T16:17:48;25.40;64.90
46562;DHT22;32289;42.688;23.330;2023-08-06T16:21:28;25.30;65.70
46562;DHT22;32289;42.688;23.330;2023-08-06T16:25:09;25.30;66.00
46562;DHT22;32289;42.688;23.330;2023-08-06T16:28:53;25.20;66.90
46562;DHT22;32289;42.688;23.330;2023-08-06T16:32:33;25.30;66.90
46562;DHT22;32289;42.688;23.330;2023-08-06T16:36:14;25.20;66.40
46562;DHT22;32289;42.688;23.330;2023-08-06T16:39:55;25.20;66.50
46562;DHT22;32289;42.688;23.330;2023-08-06T16:43:36;25.30;66.80
46562;DHT22;32289;42.688;23.330;2023-08-06T16:47:16;25.50;65.90
46562;DHT22;32289;42.688;23.330;2023-08-06T16:50:59;25.30;64.80
46562;DHT22;32289;42.688;23.330;2023-08-06T16:54:40;25.40;64.80
46562;DHT22;32289;42.688;23.330;2023-08-06T16:58:21;25.30;64.80
46562;DHT22;32289;42.688;23.330;2023-08-06T17:02:02;25.50;64.50
46562;DHT22;32289;42.688;23.330;2023-08-06T17:05:43;25.60;63.50
46562;DHT22;32289;42.688;23.330;2023-08-06T17:09:24;25.40;60.70
46562;DHT22;32289;42.688;23.330;2023-08-06T17:13:05;25.30;60.90
46562;DHT22;32289;42.688;23.330;2023-08-06T17:16:46;25.40;60.40
46562;DHT22;32289;42.688;23.330;2023-08-06T17:20:26;25.30;60.50
46562;DHT22;32289;42.688;23.330;2023-08-06T17:24:07;25.30;61.30
46562;DHT22;32289;42.688;23.330;2023-08-06T17:27:48;25.20;61.20
46562;DHT22;32289;42.688;23.330;2023-08-06T17:31:29;25.20;62.70
46562;DHT22;32289;42.688;23.330;2023-08-06T17:35:10;24.90;62.10
46562;DHT22;32289;42.688;23.330;2023-08-06T17:38:51;24.90;62.40
46562;DHT22;32289;42.688;23.330;2023-08-06T17:42:31;25.00;62.00
46562;DHT22;32289;42.688;23.330;2023-08-06T17:46:12;24.80;62.10
46562;DHT22;32289;42.688;23.330;2023-08-06T17:49:53;24.90;62.20
46562;DHT22;32289;42.688;23.330;2023-08-06T17:53:33;24.80;62.20
46562;DHT22;32289;42.688;23.330;2023-08-06T17:57:14;24.70;61.60
46562;DHT22;32289;42.688;23.330;2023-08-06T18:00:56;24.50;62.40
46562;DHT22;32289;42.688;23.330;2023-08-06T18:04:37;24.50;61.70
46562;DHT22;32289;42.688;23.330;2023-08-06T18:08:17;24.50;61.00
46562;DHT22;32289;42.688;23.330;2023-08-06T18:11:58;24.60;60.90
46562;DHT22;32289;42.688;23.330;2023-08-06T18:15:39;24.60;59.80
46562;DHT22;32289;42.688;23.330;2023-08-06T18:19:20;24.80;59.60
46562;DHT22;32289;42.688;23.330;2023-08-06T18:23:00;24.60;59.60
46562;DHT22;32289;42.688;23.330;2023-08-06T18:26:41;24.60;59.20
46562;DHT22;32289;42.688;23.330;2023-08-06T18:30:23;24.60;60.00
46562;DHT22;32289;42.688;23.330;2023-08-06T18:34:04;24.50;60.70
46562;DHT22;32289;42.688;23.330;2023-08-06T18:37:48;24.30;60.50
46562;DHT22;32289;42.688;23.330;2023-08-06T18:41:28;24.20;61.30
46562;DHT22;32289;42.688;23.330;2023-08-06T18:45:13;24.00;62.70
46562;DHT22;32289;42.688;23.330;2023-08-06T18:48:53;23.60;66.70
46562;DHT22;32289;42.688;23.330;2023-08-06T18:52:34;23.40;68.30
46562;DHT22;32289;42.688;23.330;2023-08-06T18:56:24;23.10;69.50
46562;DHT22;32289;42.688;23.330;2023-08-06T19:00:04;23.00;70.50
46562;DHT22;32289;42.688;23.330;2023-08-06T19:03:46;23.00;71.20
46562;DHT22;32289;42.688;23.330;2023-08-06T19:07:28;22.90;72.20
46562;DHT22;32289;42.688;23.330;2023-08-06T19:11:09;22.80;72.80
46562;DHT22;32289;42.688;23.330;2023-08-06T19:14:51;22.60;73.50
46562;DHT22;32289;42.688;23.330;2023-08-06T19:18:32;22.70;73.60
46562;DHT22;32289;42.688;23.330;2023-08-06T19:22:16;22.50;74.20
46562;DHT22;32289;42.688;23.330;2023-08-06T19:25:59;22.50;74.00
46562;DHT22;32289;42.688;23.330;2023-08-06T19:29:41;22.60;73.30
46562;DHT22;32289;42.688;23.330;2023-08-06T19:33:21;22.40;75.00
46562;DHT22;32289;42.688;23.330;2023-08-06T19:37:02;22.40;76.80
46562;DHT22;32289;42.688;23.330;2023-08-06T19:40:43;22.20;78.60
46562;DHT22;32289;42.688;23.330;2023-08-06T19:44:24;21.50;78.50
46562;DHT22;32289;42.688;23.330;2023-08-06T19:48:12;20.70;77.60
46562;DHT22;32289;42.688;23.330;2023-08-06T19:51:57;20.40;79.30
46562;DHT22;32289;42.688;23.330;2023-08-06T19:55:41;20.10;78.80
46562;DHT22;32289;42.688;23.330;2023-08-06T19:59:26;19.80;81.70
46562;DHT22;32289;42.688;23.330;2023-08-06T20:03:07;19.70;82.40
46562;DHT22;32289;42.688;23.330;2023-08-06T20:07:08;19.50;85.10
46562;DHT22;32289;42.688;23.330;2023-08-06T20:11:10;19.30;88.20
46562;DHT22;32289;42.688;23.330;2023-08-06T20:15:19;19.20;90.90
46562;DHT22;32289;42.688;23.330;2023-08-06T20:19:06;18.80;92.20
46562;DHT22;32289;42.688;23.330;2023-08-06T20:22:52;18.90;92.90
46562;DHT22;32289;42.688;23.330;2023-08-06T20:26:38;19.00;93.90
46562;DHT22;32289;42.688;23.330;2023-08-06T20:30:40;18.90;94.70
46562;DHT22;32289;42.688;23.330;2023-08-06T20:34:22;18.80;95.70
46562;DHT22;32289;42.688;23.330;2023-08-06T20:38:03;18.90;95.70
46562;DHT22;32289;42.688;23.330;2023-08-06T20:41:46;18.80;96.70
46562;DHT22;32289;42.688;23.330;2023-08-06T20:45:30;18.80;96.40
46562;DHT22;32289;42.688;23.330;2023-08-06T20:49:13;18.60;97.50
46562;DHT22;32289;42.688;23.330;2023-08-06T20:52:54;18.80;96.90
46562;DHT22;32289;42.688;23.330;2023-08-06T20:56:40;18.90;96.10
46562;DHT22;32289;42.688;23.330;2023-08-06T21:00:22;18.90;96.80
46562;DHT22;32289;42.688;23.330;2023-08-06T21:04:04;18.80;96.60
46562;DHT22;32289;42.688;23.330;2023-08-06T21:07:45;19.00;96.30
46562;DHT22;32289;42.688;23.330;2023-08-06T21:11:26;18.90;96.70
46562;DHT22;32289;42.688;23.330;2023-08-06T21:15:07;18.70;97.10
46562;DHT22;32289;42.688;23.330;2023-08-06T21:18:48;18.80;97.00
46562;DHT22;32289;42.688;23.330;2023-08-06T21:22:28;18.60;97.60
46562;DHT22;32289;42.688;23.330;2023-08-06T21:26:09;18.70;97.40
46562;DHT22;32289;42.688;23.330;2023-08-06T21:29:50;18.40;98.50
46562;DHT22;32289;42.688;23.330;2023-08-06T21:33:32;18.50;98.80
46562;DHT22;32289;42.688;23.330;2023-08-06T21:37:13;18.30;99.00
46562;DHT22;32289;42.688;23.330;2023-08-06T21:41:06;18.50;99.00
46562;DHT22;32289;42.688;23.330;2023-08-06T21:44:49;18.60;98.70
46562;DHT22;32289;42.688;23.330;2023-08-06T21:48:33;18.60;98.90
46562;DHT22;32289;42.688;23.330;2023-08-06T21:52:17;18.50;98.80
46562;DHT22;32289;42.688;23.330;2023-08-06T21:56:06;18.50;98.90
46562;DHT22;32289;42.688;23.330;2023-08-06T21:59:49;18.50;99.20
46562;DHT22;32289;42.688;23.330;2023-08-06T22:03:55;18.60;98.80
46562;DHT22;32289;42.688;23.330;2023-08-06T22:12:22;18.50;98.20
46562;DHT22;32289;42.688;23.330;2023-08-06T22:16:09;18.60;97.30
46562;DHT22;32289;42.688;23.330;2023-08-06T22:19:50;18.50;97.80
46562;DHT22;32289;42.688;23.330;2023-08-06T22:23:31;18.60;97.20
46562;DHT22;32289;42.688;23.330;2023-08-06T22:27:12;18.50;97.50
46562;DHT22;32289;42.688;23.330;2023-08-06T22:30:53;18.30;98.40
46562;DHT22;32289;42.688;23.330;2023-08-06T22:34:33;18.40;98.50
46562;DHT22;32289;42.688;23.330;2023-08-06T22:38:17;18.30;98.60
46562;DHT22;32289;42.688;23.330;2023-08-06T22:41:58;18.20;98.50
46562;DHT22;32289;42.688;23.330;2023-08-06T22:45:39;18.20;98.90
46562;DHT22;32289;42.688;23.330;2023-08-06T22:49:19;18.30;98.20
46562;DHT22;32289;42.688;23.330;2023-08-06T22:53:00;18.40;98.30
46562;DHT22;32289;42.688;23.330;2023-08-06T22:56:41;18.20;98.70
46562;DHT22;32289;42.688;23.330;2023-08-06T23:00:33;18.20;99.00
46562;DHT22;32289;42.688;23.330;2023-08-06T23:04:22;18.20;98.90
46562;DHT22;32289;42.688;23.330;2023-08-06T23:08:04;18.20;98.60
46562;DHT22;32289;42.688;23.330;2023-08-06T23:11:44;18.20;98.50
46562;DHT22;32289;42.688;23.330;2023-08-06T23:15:25;18.20;98.50